Ashley, Wisconsin
Current Conditions -  °F | °C
As of 8:55 PM on Monday 20 Oct 2014 (Local Time) from KCWA Reporting Station
Overcast Overcast  
Wind Chill: 44°   Ceiling: 4100
Heat Index: 46°   Visibility: 10mi
Dew Point: 41°   Wind: 6mph
Humidity: 81%   Direction: 350°N
Pressure: 30.05"   Gusts: NA
Location:  44.7605°N, 89.5918°W
Report Text: KCWA 210155Z 35005KT 10SM OVC041 08/05 A3005
Loading
Personal Weather Stations






























Interactive Weather Map
Tropical Storm Tracking
New forecast layout! Learn more

10-Day Weather Forecast

Advertisements
Track Severe Weather on mobile